Time;durP1;ratioP1;P1;durP2;ratioP2;P2;SDS_P1;SDS_P2;PMS_P1;PMS_P2;Temp;Humidity;BMP_temperature;BMP_pressure;BME280_temperature;BME280_humidity;BME280_pressure;Samples;Min_cycle;Max_cycle;Signal;HPM_P1;HPM_P2
2023/05/14 00:00:42;;;;;;;19.63;10.05;;;11.70;99.90;;;;;;5030283;28;20049;-82
2023/05/14 00:03:07;;;;;;;12.38;9.55;;;11.70;99.90;;;;;;5033788;28;20171;-82
2023/05/14 00:05:33;;;;;;;12.90;9.32;;;11.70;99.90;;;;;;5039813;28;20095;-82
2023/05/14 00:07:58;;;;;;;13.40;9.90;;;11.70;99.90;;;;;;5036125;28;20041;-82
2023/05/14 00:10:25;;;;;;;14.02;10.75;;;11.60;99.90;;;;;;5036920;28;20036;-82
2023/05/14 00:12:50;;;;;;;15.57;9.35;;;11.70;99.90;;;;;;5036648;28;20683;-81
2023/05/14 00:15:16;;;;;;;12.48;9.68;;;11.60;99.90;;;;;;5037614;28;20048;-82
2023/05/14 00:17:42;;;;;;;12.20;10.30;;;11.60;99.90;;;;;;5033174;28;20072;-82
2023/05/14 00:20:08;;;;;;;15.50;9.95;;;11.60;99.90;;;;;;5041453;28;20048;-82
2023/05/14 00:22:35;;;;;;;13.13;9.65;;;11.60;99.90;;;;;;5036309;28;20132;-81
2023/05/14 00:25:01;;;;;;;12.80;9.05;;;11.60;99.90;;;;;;5037666;28;20479;-82
2023/05/14 00:27:27;;;;;;;16.25;9.00;;;11.60;99.90;;;;;;5036098;28;20160;-82
2023/05/14 00:29:52;;;;;;;13.35;8.98;;;11.60;99.90;;;;;;5035678;28;20128;-82
2023/05/14 00:32:18;;;;;;;14.48;9.77;;;11.60;99.90;;;;;;5033848;28;21010;-82
2023/05/14 00:34:44;;;;;;;15.60;9.80;;;11.60;99.90;;;;;;5037105;28;20041;-82
2023/05/14 00:37:09;;;;;;;14.57;9.73;;;11.60;99.90;;;;;;5036374;28;20032;-82
2023/05/14 00:39:35;;;;;;;11.90;10.43;;;11.70;99.90;;;;;;5035976;28;20045;-82
2023/05/14 00:42:00;;;;;;;18.80;10.40;;;11.60;99.90;;;;;;5035497;28;20049;-82
2023/05/14 00:44:26;;;;;;;15.98;11.00;;;11.60;99.90;;;;;;5033581;28;20041;-82
2023/05/14 00:46:52;;;;;;;12.10;10.20;;;11.60;99.90;;;;;;5036297;28;20041;-82
2023/05/14 00:49:18;;;;;;;14.05;10.05;;;11.60;99.90;;;;;;5033016;28;20049;-82
2023/05/14 00:51:47;;;;;;;14.23;10.27;;;11.50;99.90;;;;;;5034099;28;20060;-82
2023/05/14 00:54:16;;;;;;;14.25;10.77;;;11.50;99.90;;;;;;5036512;28;20041;-82
2023/05/14 00:56:44;;;;;;;13.95;10.95;;;11.50;99.90;;;;;;5035084;28;20037;-83
2023/05/14 00:59:10;;;;;;;12.40;9.52;;;11.50;99.90;;;;;;5035392;28;20037;-82
2023/05/14 01:01:36;;;;;;;16.92;10.95;;;11.50;99.90;;;;;;5036483;28;20549;-82
2023/05/14 01:04:02;;;;;;;17.00;11.23;;;11.50;99.90;;;;;;5032294;28;21097;-82
2023/05/14 01:06:56;;;;;;;13.65;10.40;;;11.40;99.90;;;;;;5033145;28;20051;-82
2023/05/14 01:09:31;;;;;;;16.02;10.18;;;11.40;99.90;;;;;;5037217;28;20059;-82
2023/05/14 01:12:03;;;;;;;15.10;10.93;;;11.40;99.90;;;;;;5034086;28;20053;-82
2023/05/14 01:15:07;;;;;;;14.77;10.48;;;11.30;99.90;;;;;;5033883;28;20045;-81
2023/05/14 01:17:53;;;;;;;11.45;10.27;;;11.20;99.90;;;;;;5034899;28;20045;-82
2023/05/14 01:20:18;;;;;;;13.02;10.50;;;11.20;99.90;;;;;;5038838;28;20049;-82
2023/05/14 01:22:44;;;;;;;11.90;10.27;;;11.10;99.90;;;;;;5034884;28;20044;-83
2023/05/14 01:25:10;;;;;;;12.48;10.50;;;11.10;99.90;;;;;;5035410;28;20041;-82
2023/05/14 01:28:12;;;;;;;13.77;10.65;;;11.10;99.90;;;;;;5038853;28;20044;-82
2023/05/14 01:30:59;;;;;;;13.25;10.85;;;11.10;99.90;;;;;;5036572;28;22197;-82
2023/05/14 01:33:28;;;;;;;14.50;10.35;;;11.00;99.90;;;;;;5020457;28;20049;-82
2023/05/14 01:35:54;;;;;;;12.00;10.43;;;11.00;99.90;;;;;;5033046;28;20045;-81
2023/05/14 01:38:21;;;;;;;12.90;9.52;;;10.90;99.90;;;;;;5033981;28;21446;-82
2023/05/14 01:40:47;;;;;;;12.07;10.55;;;10.90;99.90;;;;;;5040700;28;20084;-82
2023/05/14 01:43:14;;;;;;;11.98;9.20;;;10.90;99.90;;;;;;5047057;28;20525;-81
2023/05/14 01:45:41;;;;;;;15.25;9.88;;;10.90;99.90;;;;;;5044529;28;20091;-82
2023/05/14 01:48:06;;;;;;;14.25;10.63;;;10.80;99.90;;;;;;5047762;28;20048;-82
2023/05/14 01:50:32;;;;;;;14.98;10.48;;;10.80;99.90;;;;;;5037880;28;20555;-82
2023/05/14 01:52:58;;;;;;;12.20;9.93;;;10.80;99.90;;;;;;5036918;28;20037;-82
2023/05/14 01:55:24;;;;;;;19.40;11.25;;;10.70;99.90;;;;;;5038725;28;20041;-82
2023/05/14 01:57:50;;;;;;;12.55;9.70;;;10.70;99.90;;;;;;5040705;28;20053;-82
2023/05/14 02:00:16;;;;;;;14.65;10.77;;;10.70;99.90;;;;;;5035373;28;20077;-82
2023/05/14 02:02:41;;;;;;;14.07;10.88;;;10.60;99.90;;;;;;5037492;28;20174;-82
2023/05/14 02:05:09;;;;;;;17.35;10.38;;;10.60;99.90;;;;;;5044821;28;20039;-82
2023/05/14 02:07:34;;;;;;;14.02;9.82;;;10.70;99.90;;;;;;5053419;28;20045;-82
2023/05/14 02:10:00;;;;;;;16.10;9.73;;;10.60;99.90;;;;;;5039745;28;20049;-82
2023/05/14 02:12:25;;;;;;;12.25;8.77;;;10.60;99.90;;;;;;5047517;28;20037;-81
2023/05/14 02:14:51;;;;;;;11.27;9.90;;;10.80;99.90;;;;;;5044290;28;20047;-82
2023/05/14 02:17:17;;;;;;;16.08;9.70;;;10.70;99.90;;;;;;5036035;28;20040;-82
2023/05/14 02:19:43;;;;;;;14.90;10.00;;;10.60;99.90;;;;;;5042301;28;20077;-81
2023/05/14 02:22:09;;;;;;;14.13;9.88;;;10.60;99.90;;;;;;5052573;28;20064;-81
2023/05/14 02:24:34;;;;;;;15.77;9.35;;;10.60;99.90;;;;;;5047597;28;20076;-82
2023/05/14 02:27:00;;;;;;;11.60;8.77;;;10.60;99.90;;;;;;5036230;28;20045;-82
2023/05/14 02:29:26;;;;;;;14.45;10.10;;;10.60;99.90;;;;;;5042653;28;20060;-82
2023/05/14 02:31:52;;;;;;;10.85;8.63;;;10.60;99.90;;;;;;5038449;28;20037;-82
2023/05/14 02:34:17;;;;;;;12.85;9.73;;;10.60;99.90;;;;;;5039940;28;20505;-82
2023/05/14 02:36:43;;;;;;;10.88;8.70;;;10.60;99.90;;;;;;5038516;28;20040;-82
2023/05/14 02:39:08;;;;;;;10.63;8.63;;;10.60;99.90;;;;;;5038450;28;20520;-82
2023/05/14 02:41:34;;;;;;;15.85;9.30;;;10.60;99.90;;;;;;5036883;28;20159;-82
2023/05/14 02:43:59;;;;;;;14.60;10.63;;;10.60;99.90;;;;;;5037590;28;20126;-82
2023/05/14 02:46:25;;;;;;;11.70;10.02;;;10.60;99.90;;;;;;5038319;28;20045;-83
2023/05/14 02:48:51;;;;;;;10.60;9.48;;;10.60;99.90;;;;;;5041031;28;20029;-82
2023/05/14 02:51:18;;;;;;;12.68;9.98;;;10.50;99.90;;;;;;5043598;28;20040;-82
2023/05/14 02:53:44;;;;;;;10.73;9.63;;;10.50;99.90;;;;;;5050638;28;20124;-82
2023/05/14 02:56:09;;;;;;;16.20;9.63;;;10.50;99.90;;;;;;5043888;28;20424;-83
2023/05/14 02:58:35;;;;;;;16.42;10.10;;;10.60;99.90;;;;;;5023700;28;20029;-83
2023/05/14 03:01:00;;;;;;;9.82;8.65;;;10.60;99.90;;;;;;5037661;28;20045;-82
2023/05/14 03:03:28;;;;;;;15.20;9.45;;;10.50;99.90;;;;;;5039351;28;20040;-82
2023/05/14 03:05:54;;;;;;;10.68;9.25;;;10.50;99.90;;;;;;5035722;28;20056;-82
2023/05/14 03:08:19;;;;;;;17.00;10.68;;;10.50;99.90;;;;;;5036256;28;20056;-81
2023/05/14 03:10:45;;;;;;;13.93;9.73;;;10.40;99.90;;;;;;5037276;28;20039;-82
2023/05/14 03:13:11;;;;;;;13.90;9.80;;;10.50;99.90;;;;;;5037169;28;20075;-82
2023/05/14 03:15:36;;;;;;;13.48;9.05;;;10.40;99.90;;;;;;5036372;28;20106;-82
2023/05/14 03:18:02;;;;;;;9.90;7.75;;;10.50;99.90;;;;;;5039177;28;20052;-83
2023/05/14 03:20:27;;;;;;;11.70;9.43;;;10.50;99.90;;;;;;5039083;28;20045;-82
2023/05/14 03:22:54;;;;;;;14.88;9.02;;;10.40;99.90;;;;;;5034159;28;20124;-82
2023/05/14 03:25:20;;;;;;;11.65;8.95;;;10.40;99.90;;;;;;5036451;28;20097;-82
2023/05/14 03:27:46;;;;;;;10.93;8.38;;;10.40;99.90;;;;;;5037142;28;21282;-82
2023/05/14 03:30:11;;;;;;;8.85;7.88;;;10.40;99.90;;;;;;5036306;28;20102;-82
2023/05/14 03:32:37;;;;;;;12.80;9.00;;;10.40;99.90;;;;;;5033139;28;20049;-82
2023/05/14 03:35:03;;;;;;;10.93;8.55;;;10.40;99.90;;;;;;5038767;28;20044;-82
2023/05/14 03:37:28;;;;;;;14.75;8.95;;;10.40;99.90;;;;;;5034889;28;20060;-82
2023/05/14 03:39:54;;;;;;;18.15;9.05;;;10.40;99.90;;;;;;5035278;28;20114;-82
2023/05/14 03:42:20;;;;;;;10.13;8.93;;;10.30;99.90;;;;;;5035197;28;20044;-82
2023/05/14 03:44:45;;;;;;;10.82;8.70;;;10.30;99.90;;;;;;5036332;28;20036;-82
2023/05/14 03:47:11;;;;;;;12.25;8.65;;;10.30;99.90;;;;;;5034368;28;20469;-82
2023/05/14 03:49:36;;;;;;;11.75;9.15;;;10.30;99.90;;;;;;5037578;28;20045;-82
2023/05/14 03:52:02;;;;;;;12.27;9.82;;;10.30;99.90;;;;;;5036014;28;20063;-82
2023/05/14 03:54:27;;;;;;;15.07;9.60;;;10.30;99.90;;;;;;5033632;28;20519;-82
2023/05/14 03:56:53;;;;;;;13.43;10.88;;;10.30;99.90;;;;;;5035205;28;20064;-82
2023/05/14 03:59:18;;;;;;;13.20;8.80;;;10.30;99.90;;;;;;5015138;28;20032;-82
2023/05/14 04:01:44;;;;;;;19.13;10.02;;;10.30;99.90;;;;;;5033057;28;20048;-82
2023/05/14 04:04:10;;;;;;;9.77;8.77;;;10.30;99.90;;;;;;5033729;28;20067;-82
2023/05/14 04:06:35;;;;;;;10.63;8.85;;;10.30;99.90;;;;;;5035445;28;20540;-81
2023/05/14 04:09:02;;;;;;;11.52;8.55;;;10.30;99.90;;;;;;5033769;28;20037;-82
2023/05/14 04:11:27;;;;;;;9.20;8.18;;;10.30;99.90;;;;;;5032352;28;21079;-82
2023/05/14 04:13:53;;;;;;;10.18;7.70;;;10.30;99.90;;;;;;5033840;28;20053;-82
2023/05/14 04:16:19;;;;;;;10.40;8.25;;;10.30;99.90;;;;;;5034984;28;20039;-82
2023/05/14 04:18:44;;;;;;;13.77;8.63;;;10.30;99.90;;;;;;5034853;28;20055;-81
2023/05/14 04:21:10;;;;;;;15.88;7.82;;;10.30;99.90;;;;;;5035008;28;20044;-82
2023/05/14 04:23:36;;;;;;;12.10;7.80;;;10.30;99.90;;;;;;5033842;28;20040;-81
2023/05/14 04:26:02;;;;;;;13.85;9.30;;;10.40;99.90;;;;;;5033556;28;20044;-82
2023/05/14 04:28:27;;;;;;;12.32;7.80;;;10.40;99.90;;;;;;5036273;28;20044;-82
2023/05/14 04:30:53;;;;;;;12.25;8.63;;;10.40;99.90;;;;;;5036381;28;20778;-82
2023/05/14 04:33:18;;;;;;;11.68;8.98;;;10.50;99.90;;;;;;5036532;28;20491;-82
2023/05/14 04:35:44;;;;;;;12.35;7.28;;;10.60;99.90;;;;;;5044998;28;20502;-81
2023/05/14 04:38:10;;;;;;;14.57;9.10;;;10.70;99.90;;;;;;5044365;28;20484;-82
2023/05/14 04:40:36;;;;;;;8.95;7.88;;;10.90;99.90;;;;;;5033893;28;20037;-82
2023/05/14 04:43:01;;;;;;;10.13;8.00;;;11.00;99.90;;;;;;5019256;28;20040;-82
2023/05/14 04:45:27;;;;;;;9.32;7.50;;;11.10;99.90;;;;;;5036898;28;20040;-82
2023/05/14 04:47:53;;;;;;;8.90;7.47;;;11.20;99.90;;;;;;5035237;28;20041;-82
2023/05/14 04:50:18;;;;;;;12.40;7.57;;;11.30;99.90;;;;;;5029903;28;20078;-82
2023/05/14 04:52:44;;;;;;;12.20;8.73;;;11.50;99.90;;;;;;5035510;28;20052;-82
2023/05/14 04:55:09;;;;;;;11.23;8.35;;;11.60;99.90;;;;;;5043316;28;20674;-82
2023/05/14 04:57:35;;;;;;;16.85;8.45;;;11.60;99.90;;;;;;5035736;28;20182;-82
2023/05/14 05:00:04;;;;;;;13.95;7.82;;;11.70;99.90;;;;;;5033084;28;21999;-82
2023/05/14 05:02:29;;;;;;;10.68;8.65;;;11.70;99.90;;;;;;5034320;28;20098;-82
2023/05/14 05:04:55;;;;;;;16.02;8.77;;;11.70;99.90;;;;;;5036029;28;20033;-82
2023/05/14 05:07:21;;;;;;;15.98;9.98;;;11.70;99.90;;;;;;5033649;28;20112;-82
2023/05/14 05:09:46;;;;;;;12.88;9.30;;;11.70;99.90;;;;;;5036412;28;20060;-82
2023/05/14 05:12:12;;;;;;;15.05;10.15;;;11.80;99.90;;;;;;5036062;28;20107;-82
2023/05/14 05:14:37;;;;;;;15.85;10.30;;;11.80;99.90;;;;;;5035538;28;20073;-82
2023/05/14 05:17:03;;;;;;;17.90;9.98;;;11.90;99.90;;;;;;5035768;28;20071;-82
2023/05/14 05:19:28;;;;;;;12.80;10.10;;;12.00;99.90;;;;;;5036319;28;20046;-82
2023/05/14 05:21:54;;;;;;;14.98;10.38;;;12.20;99.90;;;;;;5023967;28;20193;-83
2023/05/14 05:24:19;;;;;;;17.95;10.57;;;12.40;99.90;;;;;;5045490;28;20029;-82
2023/05/14 05:26:45;;;;;;;18.67;10.30;;;12.50;99.90;;;;;;5046324;28;20052;-82
2023/05/14 05:29:11;;;;;;;14.52;10.15;;;12.60;99.90;;;;;;5044886;28;20044;-82
2023/05/14 05:31:36;;;;;;;16.23;10.63;;;12.80;99.90;;;;;;5051119;28;20041;-82
2023/05/14 05:34:02;;;;;;;17.73;10.63;;;12.90;99.90;;;;;;5046581;28;20045;-82
2023/05/14 05:36:28;;;;;;;18.30;11.00;;;12.90;99.90;;;;;;5037864;28;20070;-82
2023/05/14 05:38:54;;;;;;;15.82;9.23;;;13.60;99.90;;;;;;5038919;28;20033;-83
2023/05/14 05:41:19;;;;;;;12.55;8.63;;;13.60;99.90;;;;;;5037942;28;20055;-82
2023/05/14 05:43:45;;;;;;;12.43;8.38;;;14.90;99.90;;;;;;5047096;28;20497;-84
2023/05/14 05:46:11;;;;;;;10.52;7.00;;;16.10;99.90;;;;;;5053890;28;20037;-82
2023/05/14 05:48:36;;;;;;;11.00;5.93;;;17.20;99.90;;;;;;5044784;28;20124;-82
2023/05/14 05:51:02;;;;;;;11.50;6.63;;;17.70;99.90;;;;;;5046569;28;20168;-82
2023/05/14 05:53:27;;;;;;;13.48;6.50;;;18.20;99.90;;;;;;5046375;28;20593;-82
2023/05/14 05:55:53;;;;;;;12.95;5.85;;;18.50;99.90;;;;;;5048837;28;20037;-82
2023/05/14 05:58:19;;;;;;;12.85;5.72;;;18.50;99.90;;;;;;5043634;28;20041;-82
2023/05/14 06:00:45;;;;;;;17.95;6.50;;;18.30;99.90;;;;;;5047024;28;20053;-82
2023/05/14 06:03:12;;;;;;;13.25;5.70;;;18.20;99.90;;;;;;5044983;28;20056;-82
2023/05/14 06:05:38;;;;;;;14.82;6.75;;;17.80;99.90;;;;;;5049002;28;20415;-84
2023/05/14 06:08:04;;;;;;;12.13;5.68;;;17.70;99.90;;;;;;5045799;28;20037;-82
2023/05/14 06:10:30;;;;;;;14.20;5.65;;;17.70;99.90;;;;;;5046893;28;20384;-82
2023/05/14 06:12:55;;;;;;;13.05;4.55;;;17.90;99.90;;;;;;5026989;28;20052;-84
2023/05/14 06:15:21;;;;;;;11.02;4.40;;;17.90;99.90;;;;;;5049251;28;20440;-82
2023/05/14 06:17:47;;;;;;;8.90;4.30;;;18.00;99.90;;;;;;5045916;28;20159;-83
2023/05/14 06:20:13;;;;;;;10.65;4.63;;;18.10;99.90;;;;;;5045865;28;20033;-83
2023/05/14 06:22:38;;;;;;;11.55;4.65;;;18.10;99.90;;;;;;5042198;28;20044;-85
2023/05/14 06:25:04;;;;;;;13.63;6.50;;;18.10;99.90;;;;;;5048405;28;20037;-85
2023/05/14 06:27:30;;;;;;;15.50;5.63;;;18.20;99.90;;;;;;5050275;28;20033;-83
2023/05/14 06:29:55;;;;;;;10.65;4.18;;;18.30;99.90;;;;;;5061225;28;20615;-81
2023/05/14 06:32:21;;;;;;;9.93;4.40;;;18.30;99.90;;;;;;5047196;28;20511;-81
2023/05/14 06:34:47;;;;;;;12.77;4.60;;;18.30;99.90;;;;;;5048793;28;20372;-82
2023/05/14 06:37:12;;;;;;;10.13;4.20;;;18.30;99.90;;;;;;5050385;28;20045;-81
2023/05/14 06:39:38;;;;;;;11.15;3.60;;;18.40;99.90;;;;;;5057045;28;20091;-81
2023/05/14 06:42:05;;;;;;;10.55;4.07;;;18.40;99.90;;;;;;5055663;28;20072;-82
2023/05/14 06:44:31;;;;;;;11.40;4.18;;;18.60;99.90;;;;;;5056907;28;20045;-81
2023/05/14 06:46:56;;;;;;;15.93;4.78;;;19.00;99.90;;;;;;5056025;28;20040;-82
2023/05/14 06:49:22;;;;;;;8.88;3.42;;;19.30;99.90;;;;;;5055700;28;20113;-81
2023/05/14 06:51:48;;;;;;;8.88;3.75;;;19.50;99.90;;;;;;5059808;28;20065;-82
2023/05/14 06:54:13;;;;;;;10.40;3.55;;;19.50;99.90;;;;;;5048629;28;20048;-80
2023/05/14 06:56:39;;;;;;;11.25;3.70;;;19.60;99.90;;;;;;5049315;28;20055;-81
2023/05/14 06:59:04;;;;;;;14.40;4.38;;;19.50;99.90;;;;;;5050981;28;20047;-81
2023/05/14 07:01:30;;;;;;;11.65;4.47;;;19.40;99.90;;;;;;5049566;28;20084;-79
2023/05/14 07:03:55;;;;;;;10.20;3.85;;;19.20;99.90;;;;;;5051873;28;20067;-81
2023/05/14 07:06:22;;;;;;;10.45;3.65;;;19.30;99.90;;;;;;5049208;28;20045;-84
2023/05/14 07:08:47;;;;;;;11.35;4.20;;;19.30;99.90;;;;;;5049181;28;20059;-84
2023/05/14 07:11:14;;;;;;;11.82;3.67;;;19.20;99.90;;;;;;5049197;28;20481;-84
2023/05/14 07:13:40;;;;;;;13.80;4.45;;;19.30;99.90;;;;;;5045665;28;20135;-82
2023/05/14 07:16:08;;;;;;;9.18;3.40;;;19.40;99.90;;;;;;5047759;28;20099;-84
2023/05/14 07:18:34;;;;;;;11.00;3.67;;;19.40;99.90;;;;;;5046394;28;20041;-83
2023/05/14 07:20:59;;;;;;;12.85;4.30;;;19.40;99.90;;;;;;5041782;28;20479;-88
2023/05/14 07:23:25;;;;;;;9.10;3.72;;;19.30;99.90;;;;;;5027095;28;20037;-84
2023/05/14 07:25:50;;;;;;;13.48;4.40;;;19.20;99.90;;;;;;5050026;28;20106;-83
2023/05/14 07:28:16;;;;;;;14.00;4.20;;;19.10;99.90;;;;;;5053473;28;20951;-84
2023/05/14 07:34:23;;;;;;;12.90;4.15;;;18.60;99.90;;;;;;5054032;28;20028;-85
2023/05/14 07:36:49;;;;;;;11.23;3.83;;;19.00;99.90;;;;;;5045895;28;20045;-85
2023/05/14 07:39:14;;;;;;;9.07;4.20;;;18.80;99.90;;;;;;5043877;28;20029;-82
2023/05/14 07:41:40;;;;;;;10.55;4.40;;;18.80;99.90;;;;;;5047507;28;20033;-84
2023/05/14 07:44:05;;;;;;;10.50;3.28;;;18.90;99.90;;;;;;5045140;28;20070;-85
2023/05/14 07:46:31;;;;;;;8.07;4.10;;;19.00;99.90;;;;;;5046483;28;20090;-82
2023/05/14 07:48:56;;;;;;;7.35;3.05;;;19.10;99.90;;;;;;5043984;28;20127;-83
2023/05/14 07:51:22;;;;;;;9.93;4.13;;;19.00;99.90;;;;;;5042127;28;20045;-83
2023/05/14 07:53:50;;;;;;;7.38;3.58;;;19.10;99.90;;;;;;5048618;28;20116;-86
2023/05/14 07:56:19;;;;;;;9.10;4.07;;;19.30;99.90;;;;;;5029238;28;20037;-87
2023/05/14 07:58:45;;;;;;;7.90;3.67;;;19.40;99.90;;;;;;5045301;28;20040;-83
2023/05/14 08:01:11;;;;;;;9.57;3.20;;;19.50;99.90;;;;;;5050677;28;20391;-85
2023/05/14 08:03:37;;;;;;;10.55;3.85;;;19.90;99.90;;;;;;5046974;28;20736;-87
2023/05/14 08:06:03;;;;;;;13.02;4.40;;;20.10;99.90;;;;;;5029746;28;20041;-88
2023/05/14 08:08:29;;;;;;;7.70;3.40;;;20.40;99.90;;;;;;5043645;28;20029;-88
2023/05/14 08:10:54;;;;;;;9.90;3.22;;;20.70;99.90;;;;;;5034467;28;20498;-86
2023/05/14 08:13:20;;;;;;;17.52;4.88;;;20.70;99.90;;;;;;5028793;28;20047;-85
2023/05/14 08:15:46;;;;;;;10.15;3.28;;;20.40;99.90;;;;;;5027747;28;20032;-85
2023/05/14 08:18:11;;;;;;;7.65;3.40;;;20.70;99.90;;;;;;5046605;28;20056;-88
2023/05/14 08:20:37;;;;;;;12.80;4.07;;;21.00;99.90;;;;;;5063521;28;20037;-87
2023/05/14 08:23:03;;;;;;;9.02;3.63;;;21.40;99.90;;;;;;5050781;28;20603;-87
2023/05/14 08:25:28;;;;;;;6.75;2.90;;;21.50;99.90;;;;;;5036408;28;20100;-86
2023/05/14 08:27:54;;;;;;;8.57;3.45;;;21.90;99.90;;;;;;5048250;28;20056;-87
2023/05/14 08:30:20;;;;;;;9.60;2.50;;;22.10;99.90;;;;;;5048948;28;21083;-86
2023/05/14 08:32:46;;;;;;;8.63;2.72;;;21.90;99.90;;;;;;5048885;28;20052;-89
2023/05/14 08:35:11;;;;;;;7.72;3.20;;;22.10;99.90;;;;;;5030518;28;20452;-88
2023/05/14 08:37:37;;;;;;;9.07;3.30;;;21.80;99.90;;;;;;5034818;28;20056;-87
2023/05/14 08:40:03;;;;;;;10.00;4.22;;;21.60;99.90;;;;;;5048884;28;20124;-87
2023/05/14 08:42:29;;;;;;;7.57;3.17;;;21.60;99.90;;;;;;5054450;28;20091;-88
2023/05/14 08:45:07;;;;;;;8.40;2.58;;;21.50;99.90;;;;;;5052209;28;20040;-87
2023/05/14 08:47:33;;;;;;;11.55;3.38;;;21.50;99.90;;;;;;5027535;28;20639;-87
2023/05/14 08:50:04;;;;;;;10.73;4.15;;;21.10;99.90;;;;;;5019550;28;20049;-86
2023/05/14 08:52:30;;;;;;;13.68;3.63;;;20.90;99.90;;;;;;5025322;28;20079;-87
2023/05/14 08:55:00;;;;;;;9.05;3.75;;;20.90;99.90;;;;;;5033123;28;20033;-86
2023/05/14 08:57:34;;;;;;;9.52;3.85;;;20.70;99.90;;;;;;5029819;28;20041;-87
2023/05/14 09:00:00;;;;;;;7.13;2.80;;;20.60;99.90;;;;;;5028406;28;20037;-83
2023/05/14 09:02:29;;;;;;;9.30;2.78;;;20.40;99.90;;;;;;5037298;28;20052;-85
2023/05/14 09:05:00;;;;;;;8.32;2.95;;;20.50;99.90;;;;;;5044038;28;20687;-84
2023/05/14 09:07:26;;;;;;;7.03;2.70;;;20.50;99.90;;;;;;5032515;28;20040;-86
2023/05/14 09:09:52;;;;;;;9.77;2.92;;;20.40;99.90;;;;;;5035253;28;20040;-87
2023/05/14 09:12:18;;;;;;;7.13;3.10;;;21.00;99.90;;;;;;5036389;28;20045;-87
2023/05/14 09:14:57;;;;;;;7.28;3.80;;;20.80;99.90;;;;;;5034903;28;20052;-89
2023/05/14 09:17:49;;;;;;;9.80;3.58;;;20.80;99.90;;;;;;5058144;28;20317;-90
2023/05/14 09:20:35;;;;;;;7.80;3.25;;;20.20;99.90;;;;;;5037352;28;20202;-90
2023/05/14 09:23:01;;;;;;;;;;;20.00;99.90;;;;;;5050069;28;20104;-90
2023/05/14 09:25:30;;;;;;;8.35;3.42;;;19.70;99.90;;;;;;5047518;28;20383;-88
2023/05/14 09:27:57;;;;;;;11.32;3.85;;;20.10;99.90;;;;;;5026491;28;20046;-87
2023/05/14 09:30:25;;;;;;;10.07;4.13;;;19.80;99.90;;;;;;5045273;28;20102;-84
2023/05/14 09:32:52;;;;;;;7.55;3.28;;;19.70;99.90;;;;;;5059510;28;20102;-84
2023/05/14 09:35:20;;;;;;;10.60;3.67;;;19.60;99.90;;;;;;5043242;28;20068;-85
2023/05/14 09:37:51;;;;;;;11.48;3.60;;;19.70;99.90;;;;;;5023454;28;20044;-84
2023/05/14 09:40:19;;;;;;;8.95;3.58;;;20.00;99.90;;;;;;5051442;28;20056;-83
2023/05/14 09:42:45;;;;;;;9.63;3.67;;;20.60;99.90;;;;;;5045047;28;20037;-87
2023/05/14 09:45:11;;;;;;;8.43;3.90;;;20.40;99.90;;;;;;5028835;28;20100;-86
2023/05/14 09:47:38;;;;;;;9.75;3.55;;;20.50;99.90;;;;;;5063373;28;20522;-84
2023/05/14 09:50:04;;;;;;;15.13;3.80;;;20.10;99.90;;;;;;5048971;28;20055;-86
2023/05/14 09:52:30;;;;;;;10.40;3.35;;;20.30;99.90;;;;;;5030684;28;21178;-83
2023/05/14 09:54:55;;;;;;;13.35;3.08;;;20.30;99.90;;;;;;5047234;28;20036;-85
2023/05/14 09:57:21;;;;;;;6.22;3.03;;;20.40;99.90;;;;;;5023209;28;20135;-84
2023/05/14 09:59:47;;;;;;;8.93;3.03;;;20.70;99.90;;;;;;5045372;28;20088;-85
2023/05/14 10:02:39;;;;;;;10.90;3.00;;;20.80;99.90;;;;;;5042606;28;20067;-85
2023/05/14 10:05:06;;;;;;;9.38;4.18;;;20.90;99.90;;;;;;5045717;28;20174;-86
2023/05/14 10:07:55;;;;;;;8.75;3.22;;;20.80;99.90;;;;;;5046656;28;20045;-89
2023/05/14 10:10:25;;;;;;;10.48;3.40;;;21.00;99.90;;;;;;5048262;28;20036;-85
2023/05/14 10:12:56;;;;;;;6.63;3.47;;;21.10;99.90;;;;;;5045697;28;20044;-84
2023/05/14 10:15:40;;;;;;;7.55;3.03;;;21.20;99.90;;;;;;5045690;28;20045;-83
2023/05/14 10:18:11;;;;;;;9.85;3.50;;;21.10;99.90;;;;;;5049325;28;20056;-85
2023/05/14 10:20:40;;;;;;;6.43;3.00;;;21.00;99.90;;;;;;5046031;28;20310;-82
2023/05/14 10:23:06;;;;;;;6.82;3.30;;;20.80;99.90;;;;;;5048005;28;20056;-83
2023/05/14 10:25:33;;;;;;;7.47;3.53;;;20.90;99.90;;;;;;5047299;28;20095;-85
2023/05/14 10:28:00;;;;;;;5.63;2.72;;;20.80;99.90;;;;;;5027788;28;20539;-87
2023/05/14 10:30:25;;;;;;;10.82;3.45;;;20.80;99.90;;;;;;5044542;28;20087;-84
2023/05/14 10:33:15;;;;;;;6.53;2.80;;;20.70;99.90;;;;;;5044495;28;20045;-81
2023/05/14 10:35:54;;;;;;;6.22;2.85;;;20.80;99.90;;;;;;5027459;28;20045;-86
2023/05/14 10:38:26;;;;;;;9.13;2.72;;;20.90;99.90;;;;;;5041486;28;20041;-83
2023/05/14 10:41:04;;;;;;;14.93;3.83;;;21.00;99.90;;;;;;5044471;28;20041;-85
2023/05/14 10:43:36;;;;;;;8.45;3.58;;;21.20;99.90;;;;;;5042500;28;20075;-85
2023/05/14 10:46:01;;;;;;;8.98;4.72;;;20.80;99.90;;;;;;5045325;28;20122;-83
2023/05/14 10:48:27;;;;;;;5.43;2.58;;;20.80;99.90;;;;;;5045080;28;20037;-86
2023/05/14 10:50:55;;;;;;;6.57;2.75;;;21.20;99.90;;;;;;5041654;28;20040;-84
2023/05/14 10:53:39;;;;;;;3.92;2.05;;;21.20;99.90;;;;;;5044716;28;20059;-83
2023/05/14 10:56:10;;;;;;;5.75;2.30;;;21.20;99.90;;;;;;5042764;28;20142;-84
2023/05/14 10:58:37;;;;;;;7.53;2.35;;;21.30;99.90;;;;;;5046055;28;20136;-84
2023/05/14 11:01:05;;;;;;;7.72;2.33;;;21.30;99.90;;;;;;5046673;28;20065;-85
2023/05/14 11:03:37;;;;;;;6.60;2.80;;;21.50;99.90;;;;;;5048252;28;20041;-85
2023/05/14 11:06:02;;;;;;;5.22;2.33;;;21.60;99.90;;;;;;5049490;28;20044;-85
2023/05/14 11:08:29;;;;;;;5.47;2.22;;;21.60;99.90;;;;;;5046293;28;20048;-86
2023/05/14 11:10:56;;;;;;;3.22;2.10;;;21.60;99.90;;;;;;5030104;28;20040;-83
2023/05/14 11:13:21;;;;;;;6.88;2.50;;;22.20;99.90;;;;;;5042535;28;20107;-82
2023/05/14 11:15:49;;;;;;;5.82;2.28;;;21.90;99.90;;;;;;5045975;28;20041;-84
2023/05/14 11:18:29;;;;;;;5.45;2.35;;;21.90;99.90;;;;;;5046570;28;20041;-87
2023/05/14 11:20:59;;;;;;;8.75;3.08;;;22.20;99.90;;;;;;5043333;28;20511;-82
2023/05/14 11:23:25;;;;;;;4.68;2.30;;;22.30;99.90;;;;;;5047187;28;20048;-87
2023/05/14 11:25:52;;;;;;;10.52;3.08;;;21.90;99.90;;;;;;5042427;28;20453;-84
2023/05/14 11:28:20;;;;;;;5.57;2.47;;;22.00;99.90;;;;;;5043707;28;20167;-82
2023/05/14 11:30:47;;;;;;;9.23;3.70;;;21.90;99.90;;;;;;5044435;28;20086;-83
2023/05/14 11:33:19;;;;;;;10.10;2.45;;;21.80;99.90;;;;;;5043746;28;20074;-85
2023/05/14 11:35:48;;;;;;;10.05;2.50;;;21.40;99.90;;;;;;5030113;28;20636;-86
2023/05/14 11:38:18;;;;;;;5.43;2.65;;;21.60;99.90;;;;;;5045633;28;20124;-84
2023/05/14 11:40:52;;;;;;;5.75;2.47;;;21.80;99.90;;;;;;5046998;28;20083;-84
2023/05/14 11:43:18;;;;;;;6.35;2.03;;;21.90;99.90;;;;;;5063165;28;20029;-86
2023/05/14 11:45:50;;;;;;;6.28;2.15;;;22.00;99.90;;;;;;5052848;28;20045;-85
2023/05/14 11:48:15;;;;;;;4.38;2.50;;;22.30;99.90;;;;;;5062300;28;20067;-85
2023/05/14 11:50:47;;;;;;;6.70;2.85;;;22.60;99.90;;;;;;5046977;28;20111;-85
2023/05/14 11:53:26;;;;;;;4.95;2.80;;;22.90;99.90;;;;;;5026758;28;20106;-86
2023/05/14 11:55:56;;;;;;;4.25;3.42;;;23.00;99.90;;;;;;5048700;28;20165;-83
2023/05/14 11:58:23;;;;;;;7.30;3.13;;;22.90;99.90;;;;;;5031267;28;20037;-84
2023/05/14 12:00:49;;;;;;;5.97;2.92;;;22.80;99.90;;;;;;5047642;28;20045;-84
2023/05/14 12:03:15;;;;;;;10.68;3.15;;;22.50;99.90;;;;;;5048611;28;20048;-86
2023/05/14 12:06:00;;;;;;;6.72;2.88;;;22.50;99.90;;;;;;5047739;28;20585;-83
2023/05/14 12:08:28;;;;;;;5.05;2.60;;;22.40;99.90;;;;;;5040183;28;20041;-83
2023/05/14 12:10:54;;;;;;;4.95;1.75;;;22.40;99.90;;;;;;5046418;28;20104;-85
2023/05/14 12:13:21;;;;;;;7.50;2.17;;;22.70;99.90;;;;;;5045914;28;20056;-83
2023/05/14 12:15:53;;;;;;;6.35;2.60;;;23.00;99.90;;;;;;5043690;28;20402;-87
2023/05/14 12:18:19;;;;;;;3.78;2.22;;;23.10;99.90;;;;;;5041079;28;20072;-84
2023/05/14 12:20:50;;;;;;;10.27;2.85;;;23.30;99.90;;;;;;5024926;28;20125;-85
2023/05/14 12:23:15;;;;;;;5.95;2.55;;;23.10;99.90;;;;;;5047103;28;20057;-84
2023/05/14 12:25:50;;;;;;;9.02;3.20;;;23.00;99.90;;;;;;5046521;28;20041;-84
2023/05/14 12:28:16;;;;;;;6.55;2.45;;;23.10;99.90;;;;;;5046329;28;20089;-85
2023/05/14 12:30:42;;;;;;;5.88;2.50;;;22.90;98.80;;;;;;5041494;28;20129;-84
2023/05/14 12:33:07;;;;;;;5.60;2.13;;;22.70;99.30;;;;;;5045255;28;20061;-83
2023/05/14 12:35:34;;;;;;;7.78;2.63;;;22.40;98.70;;;;;;5049337;28;20037;-87
2023/05/14 12:37:59;;;;;;;5.32;1.73;;;22.40;98.80;;;;;;5046560;28;20044;-86
2023/05/14 12:40:25;;;;;;;6.10;2.33;;;22.30;98.80;;;;;;5041127;28;20040;-84
2023/05/14 12:42:50;;;;;;;9.60;3.03;;;22.20;98.30;;;;;;5027682;28;21034;-85